sensor_id;sensor_type;location;lat;lon;timestamp;temperature;humidity
41324;DHT22;27073;51.128;4.220;2022-12-29T00:02:17;10.90;99.90
41324;DHT22;27073;51.128;4.220;2022-12-29T00:04:43;10.90;99.90
41324;DHT22;27073;51.128;4.220;2022-12-29T00:07:09;11.00;99.90
41324;DHT22;27073;51.128;4.220;2022-12-29T00:09:35;11.10;99.90
41324;DHT22;27073;51.128;4.220;2022-12-29T00:12:01;11.20;99.90
41324;DHT22;27073;51.128;4.220;2022-12-29T00:14:27;11.30;99.90
41324;DHT22;27073;51.128;4.220;2022-12-29T00:17:12;11.20;99.90
41324;DHT22;27073;51.128;4.220;2022-12-29T00:19:38;11.30;99.90
41324;DHT22;27073;51.128;4.220;2022-12-29T00:22:22;11.30;99.90
41324;DHT22;27073;51.128;4.220;2022-12-29T00:25:09;11.30;99.90
41324;DHT22;27073;51.128;4.220;2022-12-29T00:27:53;11.40;99.90
41324;DHT22;27073;51.128;4.220;2022-12-29T00:30:38;11.40;99.90
41324;DHT22;27073;51.128;4.220;2022-12-29T00:33:28;11.60;99.90
41324;DHT22;27073;51.128;4.220;2022-12-29T00:36:32;11.60;99.90
41324;DHT22;27073;51.128;4.220;2022-12-29T00:39:11;11.50;99.90
41324;DHT22;27073;51.128;4.220;2022-12-29T00:41:56;11.60;99.90
41324;DHT22;27073;51.128;4.220;2022-12-29T00:44:41;11.60;99.90
41324;DHT22;27073;51.128;4.220;2022-12-29T00:47:08;11.70;99.90
41324;DHT22;27073;51.128;4.220;2022-12-29T00:49:34;11.60;99.90
41324;DHT22;27073;51.128;4.220;2022-12-29T00:52:04;11.70;99.90
41324;DHT22;27073;51.128;4.220;2022-12-29T00:54:32;11.70;99.90
41324;DHT22;27073;51.128;4.220;2022-12-29T00:56:58;11.70;99.90
41324;DHT22;27073;51.128;4.220;2022-12-29T00:59:24;11.80;99.90
41324;DHT22;27073;51.128;4.220;2022-12-29T01:01:51;11.80;99.90
41324;DHT22;27073;51.128;4.220;2022-12-29T01:04:22;11.80;99.90
41324;DHT22;27073;51.128;4.220;2022-12-29T01:06:49;11.80;99.90
41324;DHT22;27073;51.128;4.220;2022-12-29T01:09:16;11.80;99.90
41324;DHT22;27073;51.128;4.220;2022-12-29T01:12:00;11.90;99.90
41324;DHT22;27073;51.128;4.220;2022-12-29T01:14:26;11.80;99.90
41324;DHT22;27073;51.128;4.220;2022-12-29T01:16:53;11.80;99.90
41324;DHT22;27073;51.128;4.220;2022-12-29T01:19:19;11.80;99.90
41324;DHT22;27073;51.128;4.220;2022-12-29T01:21:46;11.80;99.90
41324;DHT22;27073;51.128;4.220;2022-12-29T01:24:12;11.90;99.90
41324;DHT22;27073;51.128;4.220;2022-12-29T01:26:38;11.90;99.90
41324;DHT22;27073;51.128;4.220;2022-12-29T01:29:04;12.00;99.90
41324;DHT22;27073;51.128;4.220;2022-12-29T01:31:30;12.00;99.90
41324;DHT22;27073;51.128;4.220;2022-12-29T01:33:56;11.90;99.90
41324;DHT22;27073;51.128;4.220;2022-12-29T01:36:22;11.90;99.90
41324;DHT22;27073;51.128;4.220;2022-12-29T01:38:47;11.80;99.90
41324;DHT22;27073;51.128;4.220;2022-12-29T01:41:15;11.80;99.90
41324;DHT22;27073;51.128;4.220;2022-12-29T01:43:50;11.80;99.90
41324;DHT22;27073;51.128;4.220;2022-12-29T01:46:42;11.70;99.90
41324;DHT22;27073;51.128;4.220;2022-12-29T01:49:22;11.70;99.90
41324;DHT22;27073;51.128;4.220;2022-12-29T01:51:58;11.60;99.90
41324;DHT22;27073;51.128;4.220;2022-12-29T01:54:29;11.50;99.90
41324;DHT22;27073;51.128;4.220;2022-12-29T01:56:58;11.40;99.90
41324;DHT22;27073;51.128;4.220;2022-12-29T01:59:29;11.40;99.90
41324;DHT22;27073;51.128;4.220;2022-12-29T02:01:55;11.30;99.90
41324;DHT22;27073;51.128;4.220;2022-12-29T02:04:23;11.30;99.90
41324;DHT22;27073;51.128;4.220;2022-12-29T02:06:54;11.30;99.90
41324;DHT22;27073;51.128;4.220;2022-12-29T02:09:22;11.30;99.90
41324;DHT22;27073;51.128;4.220;2022-12-29T02:11:50;11.30;99.90
41324;DHT22;27073;51.128;4.220;2022-12-29T02:14:17;11.30;99.90
41324;DHT22;27073;51.128;4.220;2022-12-29T02:16:53;11.30;99.90
41324;DHT22;27073;51.128;4.220;2022-12-29T02:19:45;11.40;99.90
41324;DHT22;27073;51.128;4.220;2022-12-29T02:39:21;11.30;99.90
41324;DHT22;27073;51.128;4.220;2022-12-29T02:47:22;11.10;99.90
41324;DHT22;27073;51.128;4.220;2022-12-29T02:49:59;11.10;99.90
41324;DHT22;27073;51.128;4.220;2022-12-29T02:53:12;11.20;99.90
41324;DHT22;27073;51.128;4.220;2022-12-29T02:55:18;11.20;99.90
41324;DHT22;27073;51.128;4.220;2022-12-29T02:57:44;11.10;99.90
41324;DHT22;27073;51.128;4.220;2022-12-29T03:00:14;11.00;99.90
41324;DHT22;27073;51.128;4.220;2022-12-29T03:02:50;11.00;99.90
41324;DHT22;27073;51.128;4.220;2022-12-29T03:06:06;11.00;99.90
41324;DHT22;27073;51.128;4.220;2022-12-29T03:11:14;10.80;99.90
41324;DHT22;27073;51.128;4.220;2022-12-29T03:14:21;10.80;99.90
41324;DHT22;27073;51.128;4.220;2022-12-29T03:17:11;10.90;99.90
41324;DHT22;27073;51.128;4.220;2022-12-29T03:19:45;10.90;99.90
41324;DHT22;27073;51.128;4.220;2022-12-29T03:22:17;10.90;99.90
41324;DHT22;27073;51.128;4.220;2022-12-29T03:24:59;10.90;99.90
41324;DHT22;27073;51.128;4.220;2022-12-29T03:27:34;10.90;99.90
41324;DHT22;27073;51.128;4.220;2022-12-29T03:30:03;10.80;99.90
41324;DHT22;27073;51.128;4.220;2022-12-29T03:32:42;10.80;99.90
41324;DHT22;27073;51.128;4.220;2022-12-29T03:35:15;10.80;99.90
41324;DHT22;27073;51.128;4.220;2022-12-29T03:37:44;10.90;99.90
41324;DHT22;27073;51.128;4.220;2022-12-29T03:40:13;10.90;99.90
41324;DHT22;27073;51.128;4.220;2022-12-29T03:42:40;11.00;99.90
41324;DHT22;27073;51.128;4.220;2022-12-29T03:45:07;11.00;99.90
41324;DHT22;27073;51.128;4.220;2022-12-29T03:47:36;10.90;99.90
41324;DHT22;27073;51.128;4.220;2022-12-29T03:50:01;10.90;99.90
41324;DHT22;27073;51.128;4.220;2022-12-29T03:52:29;10.80;99.90
41324;DHT22;27073;51.128;4.220;2022-12-29T03:54:55;10.80;99.90
41324;DHT22;27073;51.128;4.220;2022-12-29T03:57:21;10.80;99.90
41324;DHT22;27073;51.128;4.220;2022-12-29T03:59:57;10.80;99.90
41324;DHT22;27073;51.128;4.220;2022-12-29T04:02:23;10.80;99.90
41324;DHT22;27073;51.128;4.220;2022-12-29T04:04:49;10.80;99.90
41324;DHT22;27073;51.128;4.220;2022-12-29T04:07:15;10.80;99.90
41324;DHT22;27073;51.128;4.220;2022-12-29T04:09:41;10.70;99.90
41324;DHT22;27073;51.128;4.220;2022-12-29T04:12:10;10.70;99.90
41324;DHT22;27073;51.128;4.220;2022-12-29T04:14:36;10.60;99.90
41324;DHT22;27073;51.128;4.220;2022-12-29T04:17:02;10.60;99.90
41324;DHT22;27073;51.128;4.220;2022-12-29T04:19:28;10.60;99.90
41324;DHT22;27073;51.128;4.220;2022-12-29T04:21:54;10.60;99.90
41324;DHT22;27073;51.128;4.220;2022-12-29T04:24:20;10.60;99.90
41324;DHT22;27073;51.128;4.220;2022-12-29T04:26:48;10.60;99.90
41324;DHT22;27073;51.128;4.220;2022-12-29T04:29:28;10.70;99.90
41324;DHT22;27073;51.128;4.220;2022-12-29T04:32:14;10.70;99.90
41324;DHT22;27073;51.128;4.220;2022-12-29T04:34:45;10.80;99.90
41324;DHT22;27073;51.128;4.220;2022-12-29T04:37:11;10.70;99.90
41324;DHT22;27073;51.128;4.220;2022-12-29T04:39:37;10.70;99.90
41324;DHT22;27073;51.128;4.220;2022-12-29T04:42:03;10.70;99.90
41324;DHT22;27073;51.128;4.220;2022-12-29T04:44:29;10.70;99.90
41324;DHT22;27073;51.128;4.220;2022-12-29T04:47:08;10.70;99.90
41324;DHT22;27073;51.128;4.220;2022-12-29T04:49:54;10.70;99.90
41324;DHT22;27073;51.128;4.220;2022-12-29T04:52:32;10.80;99.90
41324;DHT22;27073;51.128;4.220;2022-12-29T04:54:57;10.80;99.90
41324;DHT22;27073;51.128;4.220;2022-12-29T04:57:24;10.80;99.90
41324;DHT22;27073;51.128;4.220;2022-12-29T04:59:54;10.80;99.90
41324;DHT22;27073;51.128;4.220;2022-12-29T05:02:21;10.80;99.90
41324;DHT22;27073;51.128;4.220;2022-12-29T05:04:49;10.80;99.90
41324;DHT22;27073;51.128;4.220;2022-12-29T05:07:15;10.90;99.90
41324;DHT22;27073;51.128;4.220;2022-12-29T05:09:43;10.90;99.90
41324;DHT22;27073;51.128;4.220;2022-12-29T05:12:09;10.90;99.90
41324;DHT22;27073;51.128;4.220;2022-12-29T05:14:41;10.90;99.90
41324;DHT22;27073;51.128;4.220;2022-12-29T05:17:07;10.80;99.90
41324;DHT22;27073;51.128;4.220;2022-12-29T05:19:33;10.80;99.90
41324;DHT22;27073;51.128;4.220;2022-12-29T05:21:59;10.80;99.90
41324;DHT22;27073;51.128;4.220;2022-12-29T05:24:24;10.80;99.90
41324;DHT22;27073;51.128;4.220;2022-12-29T05:26:55;10.80;99.90
41324;DHT22;27073;51.128;4.220;2022-12-29T05:29:36;10.80;99.90
41324;DHT22;27073;51.128;4.220;2022-12-29T05:32:02;10.70;99.90
41324;DHT22;27073;51.128;4.220;2022-12-29T05:34:28;10.70;99.90
41324;DHT22;27073;51.128;4.220;2022-12-29T05:36:54;10.80;99.90
41324;DHT22;27073;51.128;4.220;2022-12-29T05:39:20;10.80;99.90
41324;DHT22;27073;51.128;4.220;2022-12-29T05:41:51;10.80;99.90
41324;DHT22;27073;51.128;4.220;2022-12-29T05:44:35;10.80;99.90
41324;DHT22;27073;51.128;4.220;2022-12-29T05:47:13;10.80;99.90
41324;DHT22;27073;51.128;4.220;2022-12-29T05:49:52;10.80;99.90
41324;DHT22;27073;51.128;4.220;2022-12-29T05:52:26;10.80;99.90
41324;DHT22;27073;51.128;4.220;2022-12-29T05:54:52;10.80;99.90
41324;DHT22;27073;51.128;4.220;2022-12-29T05:57:21;10.80;99.90
41324;DHT22;27073;51.128;4.220;2022-12-29T05:59:55;10.80;99.90
41324;DHT22;27073;51.128;4.220;2022-12-29T06:02:21;10.80;99.90
41324;DHT22;27073;51.128;4.220;2022-12-29T06:04:47;10.80;99.90
41324;DHT22;27073;51.128;4.220;2022-12-29T06:07:13;10.80;99.90
41324;DHT22;27073;51.128;4.220;2022-12-29T06:09:42;10.80;99.90
41324;DHT22;27073;51.128;4.220;2022-12-29T06:12:08;10.80;99.90
41324;DHT22;27073;51.128;4.220;2022-12-29T06:14:34;10.80;99.90
41324;DHT22;27073;51.128;4.220;2022-12-29T06:17:02;10.80;99.90
41324;DHT22;27073;51.128;4.220;2022-12-29T06:19:28;10.80;99.90
41324;DHT22;27073;51.128;4.220;2022-12-29T06:21:54;10.80;99.90
41324;DHT22;27073;51.128;4.220;2022-12-29T06:24:21;10.80;99.90
41324;DHT22;27073;51.128;4.220;2022-12-29T06:26:46;10.70;99.90
41324;DHT22;27073;51.128;4.220;2022-12-29T06:29:12;10.80;99.90
41324;DHT22;27073;51.128;4.220;2022-12-29T06:31:42;10.80;99.90
41324;DHT22;27073;51.128;4.220;2022-12-29T06:34:09;10.80;99.90
41324;DHT22;27073;51.128;4.220;2022-12-29T06:36:35;10.80;99.90
41324;DHT22;27073;51.128;4.220;2022-12-29T06:39:01;10.80;99.90
41324;DHT22;27073;51.128;4.220;2022-12-29T06:41:27;10.80;99.90
41324;DHT22;27073;51.128;4.220;2022-12-29T06:44:07;10.80;99.90
41324;DHT22;27073;51.128;4.220;2022-12-29T06:46:49;10.80;99.90
41324;DHT22;27073;51.128;4.220;2022-12-29T06:49:15;10.80;99.90
41324;DHT22;27073;51.128;4.220;2022-12-29T06:51:41;10.80;99.90
41324;DHT22;27073;51.128;4.220;2022-12-29T06:54:06;10.80;99.90
41324;DHT22;27073;51.128;4.220;2022-12-29T06:56:32;10.70;99.90
41324;DHT22;27073;51.128;4.220;2022-12-29T06:58:58;10.70;99.90
41324;DHT22;27073;51.128;4.220;2022-12-29T07:01:25;10.70;99.90
41324;DHT22;27073;51.128;4.220;2022-12-29T07:03:51;10.70;99.90
41324;DHT22;27073;51.128;4.220;2022-12-29T07:06:17;10.70;99.90
41324;DHT22;27073;51.128;4.220;2022-12-29T07:08:42;10.70;99.90
41324;DHT22;27073;51.128;4.220;2022-12-29T07:11:08;10.70;99.90
41324;DHT22;27073;51.128;4.220;2022-12-29T07:13:34;10.70;99.90
41324;DHT22;27073;51.128;4.220;2022-12-29T07:16:05;10.70;99.90
41324;DHT22;27073;51.128;4.220;2022-12-29T07:18:31;10.70;99.60
41324;DHT22;27073;51.128;4.220;2022-12-29T07:20:57;10.70;99.80
41324;DHT22;27073;51.128;4.220;2022-12-29T07:23:23;10.70;98.50
41324;DHT22;27073;51.128;4.220;2022-12-29T07:25:49;10.80;98.30
41324;DHT22;27073;51.128;4.220;2022-12-29T07:28:14;10.80;97.80
41324;DHT22;27073;51.128;4.220;2022-12-29T07:30:40;10.80;98.00
41324;DHT22;27073;51.128;4.220;2022-12-29T07:33:06;10.80;97.90
41324;DHT22;27073;51.128;4.220;2022-12-29T07:35:34;10.80;97.40
41324;DHT22;27073;51.128;4.220;2022-12-29T07:37:59;10.80;97.60
41324;DHT22;27073;51.128;4.220;2022-12-29T07:40:25;10.80;97.50
41324;DHT22;27073;51.128;4.220;2022-12-29T07:42:51;10.90;97.30
41324;DHT22;27073;51.128;4.220;2022-12-29T07:45:25;10.90;96.00
41324;DHT22;27073;51.128;4.220;2022-12-29T07:48:02;10.90;96.00
41324;DHT22;27073;51.128;4.220;2022-12-29T07:50:28;10.90;96.00
41324;DHT22;27073;51.128;4.220;2022-12-29T07:52:54;10.90;95.40
41324;DHT22;27073;51.128;4.220;2022-12-29T07:55:20;10.90;95.50
41324;DHT22;27073;51.128;4.220;2022-12-29T07:57:45;10.90;95.80
41324;DHT22;27073;51.128;4.220;2022-12-29T08:00:11;11.00;94.90
41324;DHT22;27073;51.128;4.220;2022-12-29T08:02:38;10.90;94.80
41324;DHT22;27073;51.128;4.220;2022-12-29T08:05:04;11.00;95.20
41324;DHT22;27073;51.128;4.220;2022-12-29T08:07:30;11.00;94.60
41324;DHT22;27073;51.128;4.220;2022-12-29T08:09:56;11.00;94.10
41324;DHT22;27073;51.128;4.220;2022-12-29T08:12:21;11.00;94.50
41324;DHT22;27073;51.128;4.220;2022-12-29T08:14:47;11.00;94.10
41324;DHT22;27073;51.128;4.220;2022-12-29T08:17:13;11.00;94.40
41324;DHT22;27073;51.128;4.220;2022-12-29T08:19:38;10.90;94.40
41324;DHT22;27073;51.128;4.220;2022-12-29T08:22:04;10.90;95.50
41324;DHT22;27073;51.128;4.220;2022-12-29T08:24:30;10.80;95.60
41324;DHT22;27073;51.128;4.220;2022-12-29T08:26:55;10.90;95.60
41324;DHT22;27073;51.128;4.220;2022-12-29T08:29:21;10.80;96.70
41324;DHT22;27073;51.128;4.220;2022-12-29T08:31:47;10.80;97.30
41324;DHT22;27073;51.128;4.220;2022-12-29T08:34:13;10.70;98.70
41324;DHT22;27073;51.128;4.220;2022-12-29T08:36:39;10.60;99.60
41324;DHT22;27073;51.128;4.220;2022-12-29T08:39:05;10.60;99.90
41324;DHT22;27073;51.128;4.220;2022-12-29T08:41:30;10.60;99.20
41324;DHT22;27073;51.128;4.220;2022-12-29T08:43:56;10.60;99.50
41324;DHT22;27073;51.128;4.220;2022-12-29T08:46:22;10.60;99.10
41324;DHT22;27073;51.128;4.220;2022-12-29T08:48:48;10.50;99.90
41324;DHT22;27073;51.128;4.220;2022-12-29T08:51:14;10.40;99.90
41324;DHT22;27073;51.128;4.220;2022-12-29T08:53:39;10.30;99.90
41324;DHT22;27073;51.128;4.220;2022-12-29T08:56:05;10.20;99.90
41324;DHT22;27073;51.128;4.220;2022-12-29T08:58:41;10.10;99.90
41324;DHT22;27073;51.128;4.220;2022-12-29T09:01:08;10.10;99.90
41324;DHT22;27073;51.128;4.220;2022-12-29T09:03:34;10.10;99.90
41324;DHT22;27073;51.128;4.220;2022-12-29T09:06:00;10.10;99.90
41324;DHT22;27073;51.128;4.220;2022-12-29T09:08:26;10.00;99.90
41324;DHT22;27073;51.128;4.220;2022-12-29T09:10:52;10.00;99.90
41324;DHT22;27073;51.128;4.220;2022-12-29T09:13:18;10.00;99.90
41324;DHT22;27073;51.128;4.220;2022-12-29T09:15:44;9.90;99.90
41324;DHT22;27073;51.128;4.220;2022-12-29T09:18:11;9.90;99.90
41324;DHT22;27073;51.128;4.220;2022-12-29T09:20:37;9.80;99.90
41324;DHT22;27073;51.128;4.220;2022-12-29T09:23:03;9.90;99.90
41324;DHT22;27073;51.128;4.220;2022-12-29T09:25:29;9.90;99.90
41324;DHT22;27073;51.128;4.220;2022-12-29T09:27:55;9.90;99.90
41324;DHT22;27073;51.128;4.220;2022-12-29T09:30:22;10.00;99.90
41324;DHT22;27073;51.128;4.220;2022-12-29T09:32:48;10.00;99.90
41324;DHT22;27073;51.128;4.220;2022-12-29T09:35:15;10.00;99.90
41324;DHT22;27073;51.128;4.220;2022-12-29T09:37:41;9.90;99.90
41324;DHT22;27073;51.128;4.220;2022-12-29T09:40:09;9.90;99.90
41324;DHT22;27073;51.128;4.220;2022-12-29T09:45:44;9.80;99.90
41324;DHT22;27073;51.128;4.220;2022-12-29T09:48:29;9.80;99.90
41324;DHT22;27073;51.128;4.220;2022-12-29T09:50:59;9.70;99.90
41324;DHT22;27073;51.128;4.220;2022-12-29T09:53:36;9.80;99.90
41324;DHT22;27073;51.128;4.220;2022-12-29T09:56:03;9.70;99.90
41324;DHT22;27073;51.128;4.220;2022-12-29T09:58:36;9.70;99.90
41324;DHT22;27073;51.128;4.220;2022-12-29T10:01:07;9.70;99.90
41324;DHT22;27073;51.128;4.220;2022-12-29T10:03:50;9.70;99.90
41324;DHT22;27073;51.128;4.220;2022-12-29T10:09:41;9.70;99.90
41324;DHT22;27073;51.128;4.220;2022-12-29T10:12:26;9.70;99.90
41324;DHT22;27073;51.128;4.220;2022-12-29T10:15:09;9.70;99.90
41324;DHT22;27073;51.128;4.220;2022-12-29T10:20:17;9.50;99.90
41324;DHT22;27073;51.128;4.220;2022-12-29T10:25:20;9.40;99.90
41324;DHT22;27073;51.128;4.220;2022-12-29T10:27:49;9.40;99.90
41324;DHT22;27073;51.128;4.220;2022-12-29T10:30:16;9.40;99.90
41324;DHT22;27073;51.128;4.220;2022-12-29T10:33:04;9.40;99.90
41324;DHT22;27073;51.128;4.220;2022-12-29T10:35:35;9.50;99.90
41324;DHT22;27073;51.128;4.220;2022-12-29T10:38:20;9.70;99.90
41324;DHT22;27073;51.128;4.220;2022-12-29T10:40:53;9.70;99.90
41324;DHT22;27073;51.128;4.220;2022-12-29T10:43:27;9.70;99.90
41324;DHT22;27073;51.128;4.220;2022-12-29T10:46:02;9.80;99.90
41324;DHT22;27073;51.128;4.220;2022-12-29T10:48:33;9.80;99.90
41324;DHT22;27073;51.128;4.220;2022-12-29T10:51:06;9.90;99.90
41324;DHT22;27073;51.128;4.220;2022-12-29T10:59:00;10.00;99.90
41324;DHT22;27073;51.128;4.220;2022-12-29T11:01:35;10.10;99.90
41324;DHT22;27073;51.128;4.220;2022-12-29T11:04:50;10.10;99.90
41324;DHT22;27073;51.128;4.220;2022-12-29T11:06:49;10.10;99.90
41324;DHT22;27073;51.128;4.220;2022-12-29T11:09:21;10.20;99.90
41324;DHT22;27073;51.128;4.220;2022-12-29T11:11:49;10.20;99.90
41324;DHT22;27073;51.128;4.220;2022-12-29T11:14:19;10.30;99.90
41324;DHT22;27073;51.128;4.220;2022-12-29T11:16:57;10.40;99.90
41324;DHT22;27073;51.128;4.220;2022-12-29T11:19:25;10.40;99.90
41324;DHT22;27073;51.128;4.220;2022-12-29T11:21:51;10.40;99.90
41324;DHT22;27073;51.128;4.220;2022-12-29T11:24:24;10.50;99.90
41324;DHT22;27073;51.128;4.220;2022-12-29T11:26:52;10.50;99.90
41324;DHT22;27073;51.128;4.220;2022-12-29T11:31:56;10.60;99.90
41324;DHT22;27073;51.128;4.220;2022-12-29T11:34:33;10.60;99.90
41324;DHT22;27073;51.128;4.220;2022-12-29T11:39:40;10.70;99.90
41324;DHT22;27073;51.128;4.220;2022-12-29T11:42:16;10.70;99.90
41324;DHT22;27073;51.128;4.220;2022-12-29T11:44:47;10.70;99.90
41324;DHT22;27073;51.128;4.220;2022-12-29T11:47:33;10.70;99.90
41324;DHT22;27073;51.128;4.220;2022-12-29T11:50:05;10.70;99.90
41324;DHT22;27073;51.128;4.220;2022-12-29T11:52:35;10.80;99.90
41324;DHT22;27073;51.128;4.220;2022-12-29T11:55:04;10.80;99.90
41324;DHT22;27073;51.128;4.220;2022-12-29T11:57:33;10.70;99.90
41324;DHT22;27073;51.128;4.220;2022-12-29T12:00:03;10.70;99.90
41324;DHT22;27073;51.128;4.220;2022-12-29T12:05:20;10.80;99.90
41324;DHT22;27073;51.128;4.220;2022-12-29T12:07:54;10.70;99.90
41324;DHT22;27073;51.128;4.220;2022-12-29T12:10:35;10.70;99.90
41324;DHT22;27073;51.128;4.220;2022-12-29T12:13:43;10.60;99.90
41324;DHT22;27073;51.128;4.220;2022-12-29T12:16:11;10.50;99.90
41324;DHT22;27073;51.128;4.220;2022-12-29T12:18:56;10.50;99.90
41324;DHT22;27073;51.128;4.220;2022-12-29T12:21:45;10.30;99.90
41324;DHT22;27073;51.128;4.220;2022-12-29T12:27:02;10.00;99.90
41324;DHT22;27073;51.128;4.220;2022-12-29T12:32:20;9.80;99.90
41324;DHT22;27073;51.128;4.220;2022-12-29T12:34:48;9.70;99.90
41324;DHT22;27073;51.128;4.220;2022-12-29T12:37:18;9.70;99.90
41324;DHT22;27073;51.128;4.220;2022-12-29T12:45:32;9.70;99.90
41324;DHT22;27073;51.128;4.220;2022-12-29T12:51:10;9.90;99.90
41324;DHT22;27073;51.128;4.220;2022-12-29T12:59:50;9.90;99.90
41324;DHT22;27073;51.128;4.220;2022-12-29T13:04:56;10.00;99.90
41324;DHT22;27073;51.128;4.220;2022-12-29T13:21:00;10.20;99.90
41324;DHT22;27073;51.128;4.220;2022-12-29T13:23:40;10.20;99.90
41324;DHT22;27073;51.128;4.220;2022-12-29T13:26:29;10.10;99.90
41324;DHT22;27073;51.128;4.220;2022-12-29T13:34:42;9.90;99.90
41324;DHT22;27073;51.128;4.220;2022-12-29T13:37:18;9.90;99.90
41324;DHT22;27073;51.128;4.220;2022-12-29T13:40:12;9.90;99.90
41324;DHT22;27073;51.128;4.220;2022-12-29T13:42:40;9.90;99.90
41324;DHT22;27073;51.128;4.220;2022-12-29T13:45:16;9.90;99.90
41324;DHT22;27073;51.128;4.220;2022-12-29T13:47:57;9.90;99.90
41324;DHT22;27073;51.128;4.220;2022-12-29T13:50:28;9.90;99.90
41324;DHT22;27073;51.128;4.220;2022-12-29T13:56:13;9.90;99.90
41324;DHT22;27073;51.128;4.220;2022-12-29T14:04:12;9.80;99.90
41324;DHT22;27073;51.128;4.220;2022-12-29T14:06:38;9.70;99.90
41324;DHT22;27073;51.128;4.220;2022-12-29T14:11:56;9.70;99.90
41324;DHT22;27073;51.128;4.220;2022-12-29T14:14:22;9.70;99.90
41324;DHT22;27073;51.128;4.220;2022-12-29T14:16:49;9.70;99.90
41324;DHT22;27073;51.128;4.220;2022-12-29T14:19:24;9.60;99.90
41324;DHT22;27073;51.128;4.220;2022-12-29T14:22:10;9.60;99.90
41324;DHT22;27073;51.128;4.220;2022-12-29T14:24:43;9.60;99.90
41324;DHT22;27073;51.128;4.220;2022-12-29T14:34:53;9.40;99.90
41324;DHT22;27073;51.128;4.220;2022-12-29T14:37:30;9.40;99.90
41324;DHT22;27073;51.128;4.220;2022-12-29T14:40:13;9.40;99.90
41324;DHT22;27073;51.128;4.220;2022-12-29T14:42:41;9.40;99.90
41324;DHT22;27073;51.128;4.220;2022-12-29T14:47:45;9.30;99.90
41324;DHT22;27073;51.128;4.220;2022-12-29T14:52:55;9.30;99.90
41324;DHT22;27073;51.128;4.220;2022-12-29T14:55:43;9.30;99.90
41324;DHT22;27073;51.128;4.220;2022-12-29T14:58:34;9.30;99.90
41324;DHT22;27073;51.128;4.220;2022-12-29T15:01:02;9.40;99.90
41324;DHT22;27073;51.128;4.220;2022-12-29T15:03:45;9.40;99.90
41324;DHT22;27073;51.128;4.220;2022-12-29T15:06:13;9.40;99.90
41324;DHT22;27073;51.128;4.220;2022-12-29T15:08:55;9.40;99.90
41324;DHT22;27073;51.128;4.220;2022-12-29T15:11:24;9.30;99.90
41324;DHT22;27073;51.128;4.220;2022-12-29T15:13:55;9.20;99.90
41324;DHT22;27073;51.128;4.220;2022-12-29T15:16:24;9.30;99.90
41324;DHT22;27073;51.128;4.220;2022-12-29T15:18:50;9.20;99.90
41324;DHT22;27073;51.128;4.220;2022-12-29T15:21:16;9.20;99.90
41324;DHT22;27073;51.128;4.220;2022-12-29T15:23:45;9.20;99.90
41324;DHT22;27073;51.128;4.220;2022-12-29T15:26:11;9.20;99.90
41324;DHT22;27073;51.128;4.220;2022-12-29T15:28:41;9.20;99.90
41324;DHT22;27073;51.128;4.220;2022-12-29T15:33:48;9.20;99.90
41324;DHT22;27073;51.128;4.220;2022-12-29T15:36:26;9.20;99.90
41324;DHT22;27073;51.128;4.220;2022-12-29T15:38:52;9.20;99.90
41324;DHT22;27073;51.128;4.220;2022-12-29T15:46:30;9.20;99.90
41324;DHT22;27073;51.128;4.220;2022-12-29T15:48:56;9.10;99.90
41324;DHT22;27073;51.128;4.220;2022-12-29T15:51:31;9.10;99.90
41324;DHT22;27073;51.128;4.220;2022-12-29T15:53:58;9.10;99.90
41324;DHT22;27073;51.128;4.220;2022-12-29T15:56:27;9.10;99.90
41324;DHT22;27073;51.128;4.220;2022-12-29T15:58:53;9.10;99.90
41324;DHT22;27073;51.128;4.220;2022-12-29T16:03:54;9.10;99.90
41324;DHT22;27073;51.128;4.220;2022-12-29T16:06:33;9.00;99.90
41324;DHT22;27073;51.128;4.220;2022-12-29T16:09:13;9.00;99.90
41324;DHT22;27073;51.128;4.220;2022-12-29T16:11:53;9.00;99.70
41324;DHT22;27073;51.128;4.220;2022-12-29T16:14:24;9.00;99.10
41324;DHT22;27073;51.128;4.220;2022-12-29T16:16:53;9.00;99.70
41324;DHT22;27073;51.128;4.220;2022-12-29T16:19:28;8.90;99.80
41324;DHT22;27073;51.128;4.220;2022-12-29T16:21:55;8.90;99.80
41324;DHT22;27073;51.128;4.220;2022-12-29T16:24:25;8.80;99.90
41324;DHT22;27073;51.128;4.220;2022-12-29T16:27:06;8.80;99.90
41324;DHT22;27073;51.128;4.220;2022-12-29T16:29:33;8.70;99.90
41324;DHT22;27073;51.128;4.220;2022-12-29T16:32:00;8.70;99.90
41324;DHT22;27073;51.128;4.220;2022-12-29T16:34:33;8.60;99.90
41324;DHT22;27073;51.128;4.220;2022-12-29T16:37:04;8.50;99.90
41324;DHT22;27073;51.128;4.220;2022-12-29T16:39:32;8.50;99.90
41324;DHT22;27073;51.128;4.220;2022-12-29T16:41:59;8.50;99.90
41324;DHT22;27073;51.128;4.220;2022-12-29T16:44:30;8.50;99.90
41324;DHT22;27073;51.128;4.220;2022-12-29T16:47:18;8.50;99.90
41324;DHT22;27073;51.128;4.220;2022-12-29T16:49:48;8.50;99.90
41324;DHT22;27073;51.128;4.220;2022-12-29T16:52:24;8.50;99.90
41324;DHT22;27073;51.128;4.220;2022-12-29T16:54:54;8.40;99.90
41324;DHT22;27073;51.128;4.220;2022-12-29T16:57:23;8.40;99.90
41324;DHT22;27073;51.128;4.220;2022-12-29T16:59:52;8.40;99.90
41324;DHT22;27073;51.128;4.220;2022-12-29T17:02:20;8.40;99.90
41324;DHT22;27073;51.128;4.220;2022-12-29T17:04:47;8.50;99.90
41324;DHT22;27073;51.128;4.220;2022-12-29T17:07:17;8.50;99.90
41324;DHT22;27073;51.128;4.220;2022-12-29T17:09:43;8.50;99.90
41324;DHT22;27073;51.128;4.220;2022-12-29T17:12:21;8.40;99.90
41324;DHT22;27073;51.128;4.220;2022-12-29T17:14:49;8.40;99.90
41324;DHT22;27073;51.128;4.220;2022-12-29T17:19:48;8.50;99.90
41324;DHT22;27073;51.128;4.220;2022-12-29T17:22:23;8.40;99.90
41324;DHT22;27073;51.128;4.220;2022-12-29T17:24:51;8.40;99.90
41324;DHT22;27073;51.128;4.220;2022-12-29T17:27:24;8.40;99.90
41324;DHT22;27073;51.128;4.220;2022-12-29T17:29:53;8.40;99.90
41324;DHT22;27073;51.128;4.220;2022-12-29T17:32:20;8.50;99.90
41324;DHT22;27073;51.128;4.220;2022-12-29T17:34:46;8.50;99.90
41324;DHT22;27073;51.128;4.220;2022-12-29T17:39:49;8.50;99.90
41324;DHT22;27073;51.128;4.220;2022-12-29T17:42:16;8.50;99.90
41324;DHT22;27073;51.128;4.220;2022-12-29T17:44:43;8.50;99.90
41324;DHT22;27073;51.128;4.220;2022-12-29T17:47:10;8.50;99.90
41324;DHT22;27073;51.128;4.220;2022-12-29T17:49:36;8.60;99.90
41324;DHT22;27073;51.128;4.220;2022-12-29T17:52:02;8.60;99.90
41324;DHT22;27073;51.128;4.220;2022-12-29T17:54:29;8.60;99.90
41324;DHT22;27073;51.128;4.220;2022-12-29T17:56:56;8.50;99.90
41324;DHT22;27073;51.128;4.220;2022-12-29T17:59:22;8.50;99.90
41324;DHT22;27073;51.128;4.220;2022-12-29T18:01:48;8.40;99.90
41324;DHT22;27073;51.128;4.220;2022-12-29T18:04:16;8.40;99.90
41324;DHT22;27073;51.128;4.220;2022-12-29T18:06:42;8.50;99.90
41324;DHT22;27073;51.128;4.220;2022-12-29T18:09:08;8.50;99.90
41324;DHT22;27073;51.128;4.220;2022-12-29T18:11:40;8.50;99.90